createdAt,value
2019-05-05T00:01:10.252Z,1.95
2019-05-05T00:04:08.939Z,1.70
2019-05-05T00:07:01.751Z,1.52
2019-05-05T00:09:55.207Z,1.92
2019-05-05T00:13:18.055Z,1.32
2019-05-05T00:16:31.095Z,1.45
2019-05-05T00:19:32.636Z,1.60
2019-05-05T00:22:19.753Z,1.30
2019-05-05T00:25:14.307Z,1.30
2019-05-05T00:28:05.612Z,1.60
2019-05-05T00:30:58.409Z,1.15
2019-05-05T00:33:51.469Z,1.70
2019-05-05T00:36:44.653Z,1.45
2019-05-05T00:39:37.063Z,1.57
2019-05-05T00:42:29.870Z,1.27
2019-05-05T00:45:22.662Z,1.67
2019-05-05T00:48:29.543Z,1.80
2019-05-05T00:51:25.672Z,1.45
2019-05-05T00:54:18.733Z,1.40
2019-05-05T00:57:11.534Z,1.87
2019-05-05T01:00:05.087Z,1.25
2019-05-05T01:03:00.200Z,1.72
2019-05-05T01:06:10.153Z,1.50
2019-05-05T01:09:04.309Z,1.75
2019-05-05T01:11:57.036Z,1.37
2019-05-05T01:14:50.601Z,1.50
2019-05-05T01:17:39.560Z,1.32
2019-05-05T01:20:34.324Z,1.90
2019-05-05T01:23:25.671Z,1.25
2019-05-05T01:26:25.896Z,1.42
2019-05-05T01:29:15.151Z,2.40
2019-05-05T01:32:07.912Z,1.75
2019-05-05T01:35:01.484Z,1.72
2019-05-05T01:38:15.529Z,1.60
2019-05-05T01:41:14.808Z,1.30
2019-05-05T01:44:07.272Z,1.52
2019-05-05T01:47:01.357Z,1.67
2019-05-05T01:49:55.174Z,1.82
2019-05-05T01:52:48.488Z,0.95
2019-05-05T01:55:41.293Z,1.27
2019-05-05T01:58:36.646Z,1.27
2019-05-05T02:01:34.988Z,1.30
2019-05-05T02:04:25.583Z,1.20
2019-05-05T02:07:18.636Z,1.15
2019-05-05T02:10:06.022Z,1.27
2019-05-05T02:12:57.333Z,1.50
2019-05-05T02:15:50.655Z,1.22
2019-05-05T02:18:45.029Z,1.30
2019-05-05T02:21:37.256Z,1.42
2019-05-05T02:24:37.991Z,1.70
2019-05-05T02:27:31.047Z,1.35
2019-05-05T02:30:42.046Z,1.42
2019-05-05T02:33:35.467Z,1.05
2019-05-05T02:36:28.141Z,1.20
2019-05-05T02:39:21.449Z,1.67
2019-05-05T02:42:10.423Z,1.30
2019-05-05T02:45:05.375Z,1.70
2019-05-05T02:48:07.273Z,1.82
2019-05-05T02:51:11.337Z,1.70
2019-05-05T02:54:04.513Z,1.30
2019-05-05T02:56:59.752Z,1.35
2019-05-05T03:00:04.484Z,1.25
2019-05-05T03:02:55.595Z,1.55
2019-05-05T03:05:56.074Z,1.37
2019-05-05T03:08:49.132Z,1.30
2019-05-05T03:11:43.653Z,1.20
2019-05-05T03:14:35.242Z,1.40
2019-05-05T03:17:29.327Z,1.52
2019-05-05T03:20:23.788Z,1.07
2019-05-05T03:23:13.508Z,1.20
2019-05-05T03:26:04.395Z,1.22
2019-05-05T03:28:59.498Z,1.35
2019-05-05T03:31:55.964Z,1.50
2019-05-05T03:34:54.568Z,1.50
2019-05-05T03:37:47.623Z,1.30
2019-05-05T03:40:43.546Z,2.08
2019-05-05T03:43:41.166Z,1.87
2019-05-05T03:46:34.462Z,1.52
2019-05-05T03:49:27.015Z,1.22
2019-05-05T03:52:20.072Z,1.35
2019-05-05T03:55:13.826Z,1.40
2019-05-05T03:58:06.190Z,1.32
2019-05-05T04:01:19.720Z,1.62
2019-05-05T04:04:24.814Z,1.67
2019-05-05T04:07:18.119Z,1.50
2019-05-05T04:10:13.921Z,1.10
2019-05-05T04:13:05.260Z,1.25
2019-05-05T04:15:58.570Z,1.35
2019-05-05T04:18:55.976Z,1.80
2019-05-05T04:21:56.969Z,1.50
2019-05-05T04:24:50.026Z,1.37
2019-05-05T04:27:44.466Z,1.40
2019-05-05T04:30:35.630Z,1.35
2019-05-05T04:33:29.704Z,1.80
2019-05-05T04:36:23.541Z,1.77
2019-05-05T04:39:14.240Z,1.35
2019-05-05T04:42:05.034Z,1.47
2019-05-05T04:44:58.095Z,1.62
2019-05-05T04:47:53.791Z,1.52
2019-05-05T04:51:04.938Z,1.45
2019-05-05T04:54:07.976Z,1.62
2019-05-05T04:57:08.461Z,1.27
2019-05-05T05:00:01.256Z,1.20
2019-05-05T05:03:23.941Z,1.70
2019-05-05T05:06:27.562Z,1.25
2019-05-05T05:09:16.879Z,1.10
2019-05-05T05:12:09.831Z,1.72
2019-05-05T05:15:04.308Z,1.27
2019-05-05T05:18:04.080Z,1.47
2019-05-05T05:21:04.050Z,1.75
2019-05-05T05:23:56.667Z,2.02
2019-05-05T05:26:49.959Z,1.32
2019-05-05T05:29:43.765Z,1.75
2019-05-05T05:32:39.721Z,2.15
2019-05-05T05:35:37.317Z,1.37
2019-05-05T05:38:30.636Z,1.42
2019-05-05T05:41:26.251Z,1.37
2019-05-05T05:44:27.997Z,1.80
2019-05-05T05:47:30.295Z,1.67
2019-05-05T05:50:24.764Z,1.25
2019-05-05T05:53:17.672Z,1.57
2019-05-05T05:56:17.896Z,1.52
2019-05-05T05:59:10.954Z,1.35
2019-05-05T06:02:11.533Z,1.60
2019-05-05T06:04:57.072Z,1.80
2019-05-05T06:07:49.869Z,1.45
2019-05-05T06:10:44.279Z,1.80
2019-05-05T06:13:35.722Z,1.30
2019-05-05T06:16:28.522Z,1.62
2019-05-05T06:19:21.322Z,2.00
2019-05-05T06:22:27.882Z,1.45
2019-05-05T06:25:18.956Z,1.70
2019-05-05T06:28:11.752Z,1.20
2019-05-05T06:31:04.968Z,1.15
2019-05-05T06:33:57.352Z,2.02
2019-05-05T06:36:53.596Z,1.32
2019-05-05T06:39:45.511Z,1.65
2019-05-05T06:42:50.608Z,1.82
2019-05-05T06:45:47.753Z,1.37
2019-05-05T06:48:43.712Z,1.67
2019-05-05T06:51:34.889Z,1.55
2019-05-05T06:54:28.202Z,1.55
2019-05-05T06:57:21.001Z,2.02
2019-05-05T07:00:14.038Z,2.12
2019-05-05T07:03:07.896Z,1.60
2019-05-05T07:06:01.449Z,2.00
2019-05-05T07:08:54.663Z,2.00
2019-05-05T07:11:47.303Z,1.82
2019-05-05T07:14:40.619Z,1.92
2019-05-05T07:17:33.990Z,1.65
2019-05-05T07:20:26.987Z,1.70
2019-05-05T07:23:19.784Z,1.57
2019-05-05T07:26:14.448Z,1.85
2019-05-05T07:29:16.486Z,2.52
2019-05-05T07:32:03.774Z,2.08
2019-05-05T07:35:14.632Z,1.45
2019-05-05T07:38:07.340Z,1.95
2019-05-05T07:41:00.135Z,1.70
2019-05-05T07:43:47.308Z,1.60
2019-05-05T07:46:40.110Z,1.80
2019-05-05T07:49:33.600Z,1.75
2019-05-05T07:52:26.986Z,1.40
2019-05-05T07:55:19.786Z,2.15
2019-05-05T07:58:13.868Z,1.80
2019-05-05T08:01:05.641Z,2.40
2019-05-05T08:03:58.698Z,1.80
2019-05-05T08:06:53.692Z,2.10
2019-05-05T08:09:44.675Z,2.35
2019-05-05T08:12:38.380Z,1.90
2019-05-05T08:15:31.435Z,2.00
2019-05-05T08:18:37.291Z,2.17
2019-05-05T08:21:43.603Z,2.05
2019-05-05T08:24:45.419Z,1.98
2019-05-05T08:27:55.379Z,2.17
2019-05-05T08:31:11.721Z,1.75
2019-05-05T08:34:05.801Z,2.17
2019-05-05T08:37:00.184Z,1.65
2019-05-05T08:39:53.992Z,1.45
2019-05-05T08:42:45.992Z,1.98
2019-05-05T08:45:35.281Z,1.95
2019-05-05T08:48:28.522Z,1.72
2019-05-05T08:51:21.324Z,1.70
2019-05-05T08:54:14.631Z,1.85
2019-05-05T08:57:07.948Z,2.08
2019-05-05T09:00:01.022Z,1.95
2019-05-05T09:02:57.131Z,2.08
2019-05-05T09:05:50.442Z,2.75
2019-05-05T09:08:44.061Z,1.82
2019-05-05T09:11:39.384Z,1.80
2019-05-05T09:14:34.435Z,2.20
2019-05-05T09:17:21.642Z,2.20
2019-05-05T09:20:11.066Z,2.22
2019-05-05T09:23:15.431Z,2.27
2019-05-05T09:26:25.386Z,2.30
2019-05-05T09:29:27.656Z,2.70
2019-05-05T09:32:24.242Z,2.47
2019-05-05T09:35:14.016Z,2.40
2019-05-05T09:38:06.829Z,2.15
2019-05-05T09:41:03.659Z,3.00
2019-05-05T09:43:54.472Z,1.98
2019-05-05T09:46:47.274Z,2.08
2019-05-05T09:49:40.840Z,2.52
2019-05-05T09:52:33.901Z,2.17
2019-05-05T09:55:26.958Z,2.67
2019-05-05T09:58:21.031Z,2.47
2019-05-05T10:01:16.909Z,2.60
2019-05-05T10:04:07.169Z,2.40
2019-05-05T10:06:56.794Z,2.52
2019-05-05T10:09:49.681Z,1.70
2019-05-05T10:12:46.792Z,2.37
2019-05-05T10:15:39.627Z,2.83
2019-05-05T10:18:35.067Z,2.45
2019-05-05T10:21:25.481Z,2.92
2019-05-05T10:24:28.618Z,3.15
2019-05-05T10:27:17.736Z,2.27
2019-05-05T10:30:10.793Z,2.00
2019-05-05T10:33:03.945Z,2.50
2019-05-05T10:35:56.908Z,2.17
2019-05-05T10:38:50.219Z,2.42
2019-05-05T10:41:44.187Z,1.62
2019-05-05T10:44:37.103Z,3.02
2019-05-05T10:47:30.154Z,2.25
2019-05-05T10:50:24.625Z,2.20
2019-05-05T10:53:13.659Z,2.05
2019-05-05T10:56:07.881Z,3.25
2019-05-05T10:58:59.049Z,2.87
2019-05-05T11:01:53.781Z,2.55
2019-05-05T11:04:46.182Z,1.92
2019-05-05T11:07:38.985Z,2.22
2019-05-05T11:10:33.861Z,2.45
2019-05-05T11:13:25.096Z,2.70
2019-05-05T11:16:14.619Z,2.80
2019-05-05T11:19:07.624Z,2.17
2019-05-05T11:25:17.288Z,3.08
2019-05-05T11:28:18.026Z,2.47
2019-05-05T11:31:11.083Z,2.35
2019-05-05T11:34:18.218Z,2.58
2019-05-05T11:37:20.487Z,2.70
2019-05-05T11:40:13.544Z,2.90
2019-05-05T11:43:06.607Z,2.25
2019-05-05T11:46:07.081Z,2.35
2019-05-05T11:49:00.140Z,2.58
2019-05-05T11:51:55.495Z,2.50
2019-05-05T11:54:48.555Z,2.17
2019-05-05T11:57:44.132Z,2.30
2019-05-05T12:00:35.687Z,2.75
2019-05-05T12:03:28.742Z,2.95
2019-05-05T12:06:21.801Z,2.10
2019-05-05T12:09:11.274Z,2.27
2019-05-05T12:12:04.328Z,1.72
2019-05-05T12:14:57.385Z,1.85
2019-05-05T12:17:50.701Z,1.70
2019-05-05T12:20:44.265Z,1.60
2019-05-05T12:23:37.319Z,1.92
2019-05-05T12:26:44.970Z,1.80
2019-05-05T12:29:49.040Z,1.60
2019-05-05T12:32:43.843Z,1.77
2019-05-05T12:35:44.583Z,1.60
2019-05-05T12:38:35.880Z,1.82
2019-05-05T12:41:28.681Z,1.70
2019-05-05T12:44:23.641Z,1.92
2019-05-05T12:47:37.833Z,1.62
2019-05-05T12:50:33.805Z,2.12
2019-05-05T12:53:25.486Z,2.10
2019-05-05T12:56:18.807Z,2.67
2019-05-05T12:59:14.159Z,2.70
2019-05-05T13:02:05.935Z,2.10
2019-05-05T13:04:58.985Z,2.10
2019-05-05T13:07:52.298Z,2.10
2019-05-05T13:10:48.680Z,2.10
2019-05-05T13:13:44.553Z,1.72
2019-05-05T13:16:36.826Z,2.10
2019-05-05T13:19:43.773Z,1.50
2019-05-05T13:22:47.530Z,1.87
2019-05-05T13:25:55.867Z,2.05
2019-05-05T13:28:43.760Z,1.90
2019-05-05T13:31:36.431Z,1.65
2019-05-05T13:34:29.480Z,2.05
2019-05-05T13:37:30.213Z,1.67
2019-05-05T13:40:24.059Z,1.70
2019-05-05T13:43:16.329Z,1.67
2019-05-05T13:46:17.322Z,2.10
2019-05-05T13:49:12.990Z,1.98
2019-05-05T13:52:04.759Z,1.60
2019-05-05T13:54:58.290Z,2.27
2019-05-05T13:57:54.891Z,1.65
2019-05-05T14:00:47.471Z,1.75
2019-05-05T14:03:48.202Z,1.30
2019-05-05T14:06:41.002Z,1.22
2019-05-05T14:09:34.058Z,2.00
2019-05-05T14:12:24.028Z,1.57
2019-05-05T14:15:16.073Z,0.93
2019-05-05T14:18:09.134Z,1.85
2019-05-05T14:21:02.188Z,1.20
2019-05-05T14:24:18.538Z,1.75
2019-05-05T14:27:08.009Z,1.40
2019-05-05T14:30:14.202Z,1.57
2019-05-05T14:33:06.926Z,1.72
2019-05-05T14:36:20.202Z,1.98
2019-05-05T14:39:14.807Z,1.55
2019-05-05T14:42:06.830Z,1.45
2019-05-05T14:44:59.880Z,1.60
2019-05-05T14:47:53.574Z,1.65
2019-05-05T14:50:46.248Z,1.57
2019-05-05T14:53:39.306Z,1.42
2019-05-05T14:56:36.507Z,1.60
2019-05-05T14:59:25.417Z,2.00
2019-05-05T15:02:18.477Z,1.30
2019-05-05T15:05:14.170Z,1.57
2019-05-05T15:08:19.947Z,1.95
2019-05-05T15:11:27.081Z,1.72
2019-05-05T15:14:18.855Z,2.08
2019-05-05T15:17:14.133Z,1.87
2019-05-05T15:20:05.994Z,1.87
2019-05-05T15:22:59.053Z,2.12
2019-05-05T15:25:48.270Z,2.02
2019-05-05T15:28:41.324Z,1.67
2019-05-05T15:31:34.240Z,1.95
2019-05-05T15:34:24.567Z,2.22
2019-05-05T15:37:17.674Z,1.98
2019-05-05T15:40:11.495Z,2.67
2019-05-05T15:43:04.556Z,1.80
2019-05-05T15:45:58.631Z,1.92
2019-05-05T15:48:51.699Z,2.00
2019-05-05T15:51:44.748Z,2.12
2019-05-05T15:54:45.738Z,1.70
2019-05-05T15:57:39.049Z,1.92
2019-05-05T16:00:33.762Z,2.02
2019-05-05T16:03:25.417Z,1.92
2019-05-05T16:06:18.729Z,1.70
2019-05-05T16:09:13.608Z,2.02
2019-05-05T16:12:04.585Z,1.37
2019-05-05T16:15:10.184Z,2.20
2019-05-05T16:18:15.019Z,1.60
2019-05-05T16:21:19.080Z,2.27
2019-05-05T16:24:22.135Z,1.75
2019-05-05T16:27:21.632Z,2.00
2019-05-05T16:30:15.914Z,2.10
2019-05-05T16:33:08.719Z,1.92
2019-05-05T16:36:13.786Z,2.27
2019-05-05T16:39:05.320Z,2.40
2019-05-05T16:42:01.448Z,1.77
2019-05-05T16:44:54.508Z,2.08
2019-05-05T16:47:44.286Z,1.87
2019-05-05T16:50:36.966Z,2.40
2019-05-05T16:53:36.092Z,2.10
2019-05-05T16:56:29.549Z,2.60
2019-05-05T16:59:23.760Z,2.40
2019-05-05T17:02:15.913Z,1.92
2019-05-05T17:05:08.969Z,1.67
2019-05-05T17:08:02.028Z,2.17
2019-05-05T17:10:52.148Z,2.15
2019-05-05T17:13:50.696Z,2.25
2019-05-05T17:17:09.864Z,1.85
2019-05-05T17:20:06.511Z,2.05
2019-05-05T17:23:21.318Z,1.77
2019-05-05T17:26:10.540Z,2.17
2019-05-05T17:29:03.754Z,1.60
2019-05-05T17:31:53.963Z,1.65
2019-05-05T17:34:54.132Z,1.80
2019-05-05T17:37:46.857Z,1.60
2019-05-05T17:40:51.189Z,1.77
2019-05-05T17:43:51.658Z,1.80
2019-05-05T17:46:59.056Z,1.55
2019-05-05T17:50:09.262Z,2.60
2019-05-05T17:53:10.007Z,2.35
2019-05-05T17:56:03.934Z,1.87
2019-05-05T17:58:56.114Z,2.05
2019-05-05T18:01:49.415Z,2.12
2019-05-05T18:04:44.292Z,2.98
2019-05-05T18:07:45.518Z,1.80
2019-05-05T18:10:42.939Z,2.72
2019-05-05T18:13:47.243Z,2.05
2019-05-05T18:16:40.807Z,2.33
2019-05-05T18:19:34.105Z,2.70
2019-05-05T18:22:27.182Z,2.25
2019-05-05T18:25:20.240Z,2.37
2019-05-05T18:28:19.405Z,2.30
2019-05-05T18:31:06.866Z,2.25
2019-05-05T18:33:59.918Z,2.10
2019-05-05T18:36:54.482Z,2.20
2019-05-05T18:39:47.051Z,2.00
2019-05-05T18:42:40.108Z,2.22
2019-05-05T18:45:33.166Z,2.58
2019-05-05T18:48:26.988Z,2.37
2019-05-05T18:51:20.041Z,2.95
2019-05-05T18:54:20.777Z,2.27
2019-05-05T18:57:13.838Z,3.20
2019-05-05T19:00:06.889Z,2.10
2019-05-05T19:03:20.044Z,1.85
2019-05-05T19:06:16.560Z,2.40
2019-05-05T19:09:24.728Z,1.67
2019-05-05T19:12:16.491Z,2.00
2019-05-05T19:15:09.553Z,2.22
2019-05-05T19:18:04.349Z,2.33
2019-05-05T19:21:05.647Z,1.35
2019-05-05T19:24:07.149Z,2.00
2019-05-05T19:27:07.885Z,1.72
2019-05-05T19:30:14.761Z,2.02
2019-05-05T19:33:06.881Z,2.35
2019-05-05T19:36:00.883Z,2.40
2019-05-05T19:38:56.618Z,2.33
2019-05-05T19:41:47.242Z,1.85
2019-05-05T19:44:54.481Z,2.02
2019-05-05T19:48:05.526Z,2.20
2019-05-05T19:51:14.086Z,2.72
2019-05-05T19:54:05.544Z,2.27
2019-05-05T19:56:58.603Z,2.12
2019-05-05T19:59:59.079Z,2.40
2019-05-05T20:03:04.243Z,2.15
2019-05-05T20:05:48.452Z,1.98
2019-05-05T20:08:41.400Z,2.60
2019-05-05T20:11:31.303Z,2.50
2019-05-05T20:14:25.643Z,2.55
2019-05-05T20:17:25.097Z,2.02
2019-05-05T20:20:20.981Z,2.30
2019-05-05T20:23:14.281Z,2.35
2019-05-05T20:26:07.342Z,2.42
2019-05-05T20:29:13.364Z,2.08
2019-05-05T20:31:54.963Z,1.90
2019-05-05T20:34:57.767Z,2.02
2019-05-05T20:38:14.301Z,2.40
2019-05-05T20:41:28.169Z,2.60
2019-05-05T20:44:21.483Z,1.95
2019-05-05T20:47:17.354Z,2.20
2019-05-05T20:50:12.457Z,2.15
2019-05-05T20:53:05.768Z,2.05
2019-05-05T20:55:59.082Z,1.72
2019-05-05T20:58:55.022Z,2.27
2019-05-05T21:01:48.007Z,2.40
2019-05-05T21:04:41.063Z,2.37
2019-05-05T21:07:38.216Z,2.70
2019-05-05T21:10:31.275Z,2.55
2019-05-05T21:13:24.332Z,1.75
2019-05-05T21:16:25.577Z,2.33
2019-05-05T21:19:18.633Z,2.40
2019-05-05T21:22:13.474Z,2.12
2019-05-05T21:25:01.161Z,2.50
2019-05-05T21:27:58.778Z,2.00
2019-05-05T21:30:48.873Z,2.08
2019-05-05T21:33:41.866Z,2.40
2019-05-05T21:36:38.348Z,2.35
2019-05-05T21:39:29.769Z,3.35
2019-05-05T21:42:24.132Z,2.60
2019-05-05T21:45:15.887Z,3.60
2019-05-05T21:48:13.632Z,2.75
2019-05-05T21:51:09.692Z,2.10
2019-05-05T21:54:10.671Z,2.20
2019-05-05T21:57:14.119Z,2.17
2019-05-05T22:00:14.439Z,3.83
2019-05-05T22:03:18.761Z,4.17
2019-05-05T22:06:19.244Z,3.77
2019-05-05T22:09:12.295Z,2.50
2019-05-05T22:12:05.351Z,2.70
2019-05-05T22:14:58.164Z,3.33
2019-05-05T22:17:51.210Z,5.03
2019-05-05T22:20:48.108Z,4.70
2019-05-05T22:23:45.769Z,3.72
2019-05-05T22:26:49.322Z,3.70
2019-05-05T22:29:44.542Z,3.95
2019-05-05T22:32:35.183Z,3.85
2019-05-05T22:35:28.232Z,3.58
2019-05-05T22:38:28.723Z,3.30
2019-05-05T22:41:21.768Z,3.70
2019-05-05T22:44:15.335Z,2.37
2019-05-05T22:47:14.914Z,1.90
2019-05-05T22:50:04.622Z,4.10
2019-05-05T22:52:58.089Z,2.72
2019-05-05T22:55:51.144Z,2.22
2019-05-05T22:58:44.038Z,2.65
2019-05-05T23:01:32.906Z,2.22
2019-05-05T23:04:37.225Z,2.33
2019-05-05T23:07:37.548Z,2.42
2019-05-05T23:10:35.039Z,2.22
2019-05-05T23:13:33.722Z,2.00
2019-05-05T23:16:39.657Z,3.90
2019-05-05T23:19:33.684Z,1.60
2019-05-05T23:22:39.598Z,1.70
2019-05-05T23:25:37.256Z,2.08
2019-05-05T23:28:30.056Z,2.98
2019-05-05T23:31:24.130Z,3.72
2019-05-05T23:34:16.170Z,3.60
2019-05-05T23:37:10.256Z,2.75
2019-05-05T23:40:03.795Z,2.05
2019-05-05T23:42:54.009Z,3.12
2019-05-05T23:45:45.580Z,2.15
2019-05-05T23:48:38.634Z,2.60
2019-05-05T23:51:31.687Z,1.82
2019-05-05T23:54:20.950Z,3.85
2019-05-05T23:57:13.961Z,3.98
